Braunschweig Wolfsburg Airport


Codes: EDVE/BWE
Name: Braunschweig Wolfsburg Airport
City:
Country: Germany
Elevation: 295 ft.

Photos at Braunschweig Wolfsburg Airport


   Photos courtesy of SpottingLog. You can add your own sightings and photos by signing up for a free trial today.



No photos found.

Weather at Braunschweig Wolfsburg Airport


Time (UTC)DescriptionTempratureWindCloud coverageVisibilityPressureHumidity
26-Jun-2024 00:00Few Clouds17°C7 mph, E11%10000m1015hPa78%
26-Jun-2024 03:00Scattered Clouds16°C7 mph, E25%10000m1014hPa85%
26-Jun-2024 06:00Few Clouds19°C7 mph, E18%10000m1013hPa79%
26-Jun-2024 09:00Clear Sky24°C9 mph, E1%10000m1013hPa64%
26-Jun-2024 12:00Clear Sky28°C9 mph, E1%10000m1011hPa56%
26-Jun-2024 15:00Few Clouds29°C7 mph, SE12%10000m1010hPa52%
26-Jun-2024 18:00Scattered Clouds26°C7 mph, NE29%10000m1009hPa70%
26-Jun-2024 21:00Broken Clouds23°C9 mph, NE82%10000m1009hPa70%
27-Jun-2024 00:00Light Rain20°C7 mph, E73%10000m1009hPa83%
27-Jun-2024 03:00Overcast Clouds19°C7 mph, SE95%10000m1008hPa87%
27-Jun-2024 06:00Overcast Clouds22°C7 mph, SE96%10000m1008hPa81%
27-Jun-2024 09:00Overcast Clouds26°C9 mph, SE97%10000m1008hPa65%
27-Jun-2024 12:00Broken Clouds29°C7 mph, SE81%10000m1007hPa55%
27-Jun-2024 15:00Light Rain28°C9 mph, SW76%10000m1007hPa65%
27-Jun-2024 18:00Light Rain25°C7 mph, SW79%10000m1007hPa81%
27-Jun-2024 21:00Light Rain20°C7 mph, W1%10000m1009hPa88%
28-Jun-2024 00:00Few Clouds19°C4 mph, SW13%10000m1010hPa92%
28-Jun-2024 03:00Light Rain18°C9 mph, SW100%10000m1010hPa95%
28-Jun-2024 06:00Broken Clouds17°C9 mph, W84%10000m1012hPa89%
28-Jun-2024 09:00Scattered Clouds20°C16 mph, W43%10000m1014hPa61%
28-Jun-2024 12:00Scattered Clouds22°C16 mph, W44%10000m1016hPa51%
28-Jun-2024 15:00Scattered Clouds22°C13 mph, W28%10000m1017hPa51%
28-Jun-2024 18:00Scattered Clouds19°C7 mph, NW36%10000m1018hPa69%
28-Jun-2024 21:00Few Clouds14°C2 mph, W11%10000m1020hPa86%
29-Jun-2024 00:00Clear Sky12°C2 mph, S8%10000m1020hPa91%
29-Jun-2024 03:00Few Clouds12°C4 mph, SE11%10000m1019hPa93%
29-Jun-2024 06:00Scattered Clouds17°C7 mph, SE29%10000m1019hPa77%
29-Jun-2024 09:00Clear Sky21°C11 mph, SE10%10000m1017hPa61%
29-Jun-2024 12:00Few Clouds25°C9 mph, SE22%10000m1014hPa50%
29-Jun-2024 15:00Broken Clouds26°C9 mph, SE64%10000m1011hPa49%
29-Jun-2024 18:00Scattered Clouds24°C9 mph, E48%10000m1008hPa73%
29-Jun-2024 21:00Moderate Rain20°C7 mph, W68%3732m1007hPa93%
30-Jun-2024 00:00Moderate Rain19°C2 mph, W84%8927m1006hPa98%
30-Jun-2024 03:00Moderate Rain18°C4 mph, NW100%10000m1003hPa96%
30-Jun-2024 06:00Light Rain21°C11 mph, S91%10000m1003hPa88%
30-Jun-2024 09:00Light Rain22°C20 mph, SW46%10000m1003hPa78%
30-Jun-2024 12:00Light Rain17°C20 mph, SW56%10000m1006hPa88%
30-Jun-2024 15:00Overcast Clouds16°C13 mph, W100%10000m1008hPa79%
30-Jun-2024 18:00Overcast Clouds15°C9 mph, SW100%10000m1009hPa68%
30-Jun-2024 21:00Overcast Clouds15°C9 mph, SW99%10000m1008hPa60%